createdAt,value
2023-05-19T09:44:38.395Z,38.57
2023-05-19T09:45:43.526Z,38.58
2023-05-19T09:46:53.029Z,38.51
2023-05-19T09:48:00.934Z,38.49
2023-05-19T09:49:13.093Z,38.42
2023-05-19T09:50:19.560Z,38.37
2023-05-19T09:52:30.739Z,38.36
2023-05-19T09:53:38.583Z,38.31
2023-05-19T09:54:45.095Z,38.26
2023-05-19T09:58:12.713Z,38.21
2023-05-19T09:59:17.772Z,38.19
2023-05-19T10:00:26.582Z,38.18
2023-05-19T10:01:32.354Z,38.18
2023-05-19T10:02:38.410Z,38.16
2023-05-19T10:03:44.493Z,38.08
2023-05-19T10:04:51.988Z,38.17
2023-05-19T10:05:58.415Z,38.15
2023-05-19T10:07:06.372Z,38.13
2023-05-19T10:08:13.227Z,38.12
2023-05-19T10:09:19.810Z,38.10
2023-05-19T10:10:26.020Z,38.04
2023-05-19T10:11:31.226Z,38.05
2023-05-19T10:12:37.049Z,38.05
2023-05-19T10:13:42.871Z,38.00
2023-05-19T10:14:47.876Z,37.98
2023-05-19T10:15:59.413Z,37.96
2023-05-19T10:17:06.038Z,37.96
2023-05-19T10:18:13.328Z,37.90
2023-05-19T10:19:18.210Z,37.90
2023-05-19T10:20:24.041Z,37.85
2023-05-19T10:21:28.697Z,37.84
2023-05-19T10:22:34.577Z,37.71
2023-05-19T10:23:43.092Z,37.72
2023-05-19T10:24:47.633Z,37.69
2023-05-19T10:25:54.476Z,37.60
2023-05-19T10:27:03.994Z,37.55
2023-05-19T10:28:12.931Z,37.50
2023-05-19T10:29:20.678Z,37.43
2023-05-19T10:30:32.652Z,37.39
2023-05-19T10:31:41.212Z,37.38
2023-05-19T10:32:49.588Z,37.32
2023-05-19T10:34:06.002Z,37.25
2023-05-19T10:35:47.476Z,37.20
2023-05-19T10:36:56.260Z,37.13
2023-05-19T10:38:13.801Z,37.02
2023-05-19T10:39:20.971Z,36.88
2023-05-19T10:40:31.828Z,36.82
2023-05-19T10:41:49.811Z,36.75
2023-05-19T10:43:05.820Z,36.69
2023-05-19T10:44:15.626Z,36.62
2023-05-19T10:45:21.870Z,36.55
2023-05-19T10:46:29.437Z,36.51
2023-05-19T10:47:36.284Z,36.48
2023-05-19T10:48:42.193Z,36.46
2023-05-19T10:49:48.655Z,36.40
2023-05-19T10:50:57.350Z,36.35
2023-05-19T10:52:03.202Z,36.30
2023-05-19T10:53:07.718Z,36.27
2023-05-19T10:54:17.061Z,36.23
2023-05-19T10:55:50.056Z,36.19
2023-05-19T10:57:01.941Z,36.15
2023-05-19T10:58:06.879Z,36.12
2023-05-19T10:59:36.034Z,36.04
2023-05-19T11:00:43.711Z,36.02
2023-05-19T11:01:49.899Z,35.98
2023-05-19T11:02:58.460Z,35.94
2023-05-19T11:04:10.041Z,35.90
2023-05-19T11:05:19.045Z,35.85
2023-05-19T11:06:30.704Z,35.79
2023-05-19T11:07:36.677Z,35.78
2023-05-19T11:08:41.271Z,35.73
2023-05-19T11:09:47.156Z,35.72
2023-05-19T11:10:55.915Z,35.66
2023-05-19T11:12:08.036Z,35.63
2023-05-19T11:13:24.159Z,35.59
2023-05-19T11:14:30.658Z,35.54
2023-05-19T11:15:38.119Z,35.49
2023-05-19T11:16:46.677Z,35.47
2023-05-19T11:17:52.844Z,35.43
2023-05-19T11:19:02.566Z,35.38
2023-05-19T11:20:12.463Z,35.37
2023-05-19T11:21:19.629Z,35.34
2023-05-19T11:22:28.148Z,35.33
2023-05-19T11:23:36.932Z,35.31
2023-05-19T11:24:47.215Z,35.26
2023-05-19T11:25:52.628Z,35.23
2023-05-19T11:26:58.652Z,35.20
2023-05-19T11:28:04.589Z,35.17
2023-05-19T11:29:09.166Z,35.13
2023-05-19T11:30:16.020Z,35.12
2023-05-19T11:31:23.936Z,35.09
2023-05-19T11:32:29.945Z,35.04
2023-05-19T11:33:36.127Z,34.99
2023-05-19T11:34:42.683Z,34.96
2023-05-19T11:35:50.319Z,34.94
2023-05-19T11:36:55.462Z,34.92
2023-05-19T11:38:01.359Z,34.90
2023-05-19T11:39:07.877Z,34.88
2023-05-19T11:40:14.218Z,34.85
2023-05-19T11:41:20.841Z,34.80
2023-05-19T11:42:26.042Z,34.77
2023-05-19T11:43:31.908Z,34.73
2023-05-19T11:44:36.415Z,34.68
2023-05-19T11:45:42.845Z,34.67
2023-05-19T11:46:48.977Z,34.64
2023-05-19T11:49:05.934Z,34.59
2023-05-19T11:50:15.269Z,34.56
2023-05-19T11:51:21.338Z,34.52
2023-05-19T11:52:28.449Z,34.49
2023-05-19T11:53:37.095Z,34.47
2023-05-19T11:54:43.026Z,34.44
2023-05-19T11:55:50.116Z,34.40
2023-05-19T11:56:55.079Z,34.38
2023-05-19T11:58:04.594Z,34.37
2023-05-19T11:59:11.574Z,34.34
2023-05-19T12:00:18.239Z,34.33
2023-05-19T12:01:28.340Z,34.29
2023-05-19T12:02:32.940Z,34.27
2023-05-19T12:03:39.000Z,34.25
2023-05-19T12:04:43.818Z,34.23
2023-05-19T12:05:52.332Z,34.20
2023-05-19T12:06:57.029Z,34.19
2023-05-19T12:08:04.051Z,34.16
2023-05-19T12:09:10.201Z,34.14
2023-05-19T12:10:14.766Z,34.12
2023-05-19T12:11:20.708Z,34.11
2023-05-19T12:12:29.562Z,34.08
2023-05-19T12:13:35.479Z,34.05
2023-05-19T12:14:40.022Z,34.02
2023-05-19T12:15:45.883Z,34.00
2023-05-19T12:16:50.461Z,33.98
2023-05-19T12:18:00.769Z,33.96
2023-05-19T12:19:09.115Z,33.96
2023-05-19T12:20:14.588Z,33.94
2023-05-19T12:21:22.116Z,33.91
2023-05-19T12:22:26.639Z,33.91
2023-05-19T12:23:33.024Z,33.89
2023-05-19T12:24:38.571Z,33.85
2023-05-19T12:25:44.463Z,33.82
2023-05-19T12:26:52.941Z,33.80
2023-05-19T12:28:01.574Z,33.79
2023-05-19T12:29:09.543Z,33.77
2023-05-19T12:30:16.341Z,33.74
2023-05-19T12:31:24.367Z,33.75
2023-05-19T12:32:30.018Z,33.76
2023-05-19T12:33:36.783Z,33.73
2023-05-19T12:34:43.285Z,33.72
2023-05-19T12:35:50.927Z,33.70
2023-05-19T12:36:57.166Z,33.70
2023-05-19T12:38:07.322Z,33.69
2023-05-19T12:39:12.775Z,33.69
2023-05-19T12:40:19.792Z,33.67
2023-05-19T12:41:28.314Z,33.63
2023-05-19T12:42:33.167Z,33.66
2023-05-19T12:43:39.137Z,33.63
2023-05-19T12:44:48.911Z,33.63
2023-05-19T12:45:55.108Z,33.61
2023-05-19T12:47:00.725Z,33.60
2023-05-19T12:48:08.154Z,33.57
2023-05-19T12:49:14.002Z,33.57
2023-05-19T12:50:18.505Z,33.56
2023-05-19T12:51:24.467Z,33.56
2023-05-19T12:52:31.603Z,33.53
2023-05-19T12:53:37.446Z,33.52
2023-05-19T12:54:42.009Z,33.51
2023-05-19T12:55:48.505Z,33.50
2023-05-19T12:56:53.698Z,33.47
2023-05-19T12:58:00.951Z,33.47
2023-05-19T12:59:05.873Z,33.44
2023-05-19T13:00:19.921Z,33.41
2023-05-19T13:01:26.738Z,33.39
2023-05-19T13:02:31.424Z,33.37
2023-05-19T13:03:44.264Z,33.36
2023-05-19T13:04:49.592Z,33.34
2023-05-19T13:05:55.475Z,33.30
2023-05-19T13:07:00.087Z,33.28
2023-05-19T13:08:09.648Z,33.26
2023-05-19T13:09:16.360Z,33.24
2023-05-19T13:10:22.869Z,33.21
2023-05-19T13:11:28.663Z,33.19
2023-05-19T13:12:34.597Z,33.17
2023-05-19T13:13:41.082Z,33.13
2023-05-19T13:14:46.239Z,33.11
2023-05-19T13:15:52.157Z,33.12
2023-05-19T13:16:58.051Z,33.08
2023-05-19T13:18:03.952Z,33.08
2023-05-19T13:19:23.916Z,33.06
2023-05-19T13:20:31.400Z,33.04
2023-05-19T13:21:37.392Z,33.02
2023-05-19T13:22:41.966Z,33.02
2023-05-19T13:23:49.415Z,32.99
2023-05-19T13:24:55.338Z,32.98
2023-05-19T13:26:01.193Z,32.96
2023-05-19T13:27:07.571Z,32.93
2023-05-19T13:28:13.735Z,32.92
2023-05-19T13:29:19.618Z,32.90
2023-05-19T13:30:24.712Z,32.87
2023-05-19T13:31:30.573Z,32.87
2023-05-19T13:32:35.324Z,32.85
2023-05-19T13:33:41.209Z,32.83
2023-05-19T13:34:45.730Z,32.81
2023-05-19T13:35:51.610Z,32.79
2023-05-19T13:36:56.633Z,32.80
2023-05-19T13:38:05.264Z,32.78
2023-05-19T13:39:11.441Z,32.75
2023-05-19T13:40:18.566Z,32.74
2023-05-19T13:41:27.651Z,32.71
2023-05-19T13:42:33.435Z,32.68
2023-05-19T13:43:39.345Z,32.64
2023-05-19T13:44:43.909Z,32.64
2023-05-19T13:45:50.024Z,32.64
2023-05-19T13:46:54.636Z,32.61
2023-05-19T13:48:00.566Z,32.59
2023-05-19T13:49:05.250Z,32.58
2023-05-19T13:50:11.585Z,32.55
2023-05-19T13:51:17.545Z,32.55
2023-05-19T13:52:22.902Z,32.53
2023-05-19T13:53:28.788Z,32.52
2023-05-19T13:54:35.260Z,32.51
2023-05-19T13:55:41.049Z,32.50
2023-05-19T13:56:47.018Z,32.49
2023-05-19T13:57:53.757Z,32.46
2023-05-19T13:58:58.902Z,32.43
2023-05-19T14:00:05.590Z,32.40
2023-05-19T14:01:10.300Z,32.40
2023-05-19T14:02:16.154Z,32.37
2023-05-19T14:03:20.768Z,32.35
2023-05-19T14:04:27.056Z,32.35
2023-05-19T14:05:32.146Z,32.33
2023-05-19T14:06:38.046Z,32.33
2023-05-19T14:07:43.857Z,32.31
2023-05-19T14:08:48.394Z,32.28
2023-05-19T14:09:56.287Z,32.27
2023-05-19T14:11:02.227Z,32.24
2023-05-19T14:12:08.792Z,32.23
2023-05-19T14:13:29.918Z,32.21
2023-05-19T14:14:38.795Z,32.19
2023-05-19T14:15:43.421Z,32.20
2023-05-19T14:16:49.339Z,32.18
2023-05-19T14:17:54.602Z,32.18
2023-05-19T14:19:00.571Z,32.18
2023-05-19T14:20:06.052Z,32.16
2023-05-19T14:21:12.140Z,32.15
2023-05-19T14:22:19.489Z,32.12
2023-05-19T14:23:25.781Z,32.12
2023-05-19T14:24:30.523Z,32.10
2023-05-19T14:25:38.305Z,32.09
2023-05-19T14:26:44.456Z,32.08
2023-05-19T14:27:49.363Z,32.05
2023-05-19T14:28:55.280Z,32.04
2023-05-19T14:29:59.883Z,31.99
2023-05-19T14:31:05.752Z,31.99
2023-05-19T14:32:10.779Z,31.98
2023-05-19T14:33:17.786Z,31.97
2023-05-19T14:34:22.390Z,31.96
2023-05-19T14:35:28.394Z,31.94
2023-05-19T14:36:35.780Z,31.93
2023-05-19T14:37:41.819Z,31.90
2023-05-19T14:38:46.554Z,31.90
2023-05-19T14:39:52.752Z,31.88
2023-05-19T14:40:59.487Z,31.87
2023-05-19T14:42:05.516Z,31.87
2023-05-19T14:43:10.016Z,31.85
2023-05-19T14:44:15.934Z,31.82
2023-05-19T14:45:20.852Z,31.82
2023-05-19T14:46:27.020Z,31.79
2023-05-19T14:47:32.923Z,31.79
2023-05-19T14:48:37.632Z,31.80
2023-05-19T14:49:43.495Z,31.79
2023-05-19T14:50:50.751Z,31.79
2023-05-19T14:51:55.287Z,31.77
2023-05-19T14:53:01.399Z,31.76
2023-05-19T14:54:06.101Z,31.76
2023-05-19T14:55:12.420Z,31.75
2023-05-19T14:56:18.649Z,31.73
2023-05-19T14:57:24.572Z,31.70
2023-05-19T14:58:30.589Z,31.70
2023-05-19T14:59:36.401Z,31.69
2023-05-19T15:00:42.308Z,31.66
2023-05-19T15:01:48.341Z,31.66
2023-05-19T15:02:54.747Z,31.65
2023-05-19T15:04:03.199Z,31.63
2023-05-19T15:05:08.269Z,31.61
2023-05-19T15:06:14.401Z,31.60
2023-05-19T15:07:20.270Z,31.59
2023-05-19T15:08:24.969Z,31.57
2023-05-19T15:09:30.892Z,31.56
2023-05-19T15:10:37.000Z,31.55
2023-05-19T15:11:43.229Z,31.55
2023-05-19T15:12:49.364Z,31.52
2023-05-19T15:13:55.126Z,31.49
2023-05-19T15:14:59.640Z,31.48
2023-05-19T15:16:16.889Z,31.46
2023-05-19T15:17:25.222Z,31.45
2023-05-19T15:18:29.815Z,31.43
2023-05-19T15:19:35.629Z,31.44
2023-05-19T15:20:40.160Z,31.41
2023-05-19T15:21:46.669Z,31.39
2023-05-19T15:22:51.275Z,31.39
2023-05-19T15:23:57.221Z,31.36
2023-05-19T15:25:02.230Z,31.36
2023-05-19T15:26:08.235Z,31.33
2023-05-19T15:27:14.608Z,31.32
2023-05-19T15:28:20.423Z,31.31
2023-05-19T15:29:24.957Z,31.30
2023-05-19T15:30:30.946Z,31.29
2023-05-19T15:31:38.129Z,31.27
2023-05-19T15:32:44.374Z,31.26
2023-05-19T15:33:48.988Z,31.25
2023-05-19T15:34:54.761Z,31.25
2023-05-19T15:36:01.205Z,31.24
2023-05-19T15:37:07.088Z,31.24
2023-05-19T15:38:11.972Z,31.22
2023-05-19T15:39:17.875Z,31.20
2023-05-19T15:40:23.803Z,31.19
2023-05-19T15:41:29.747Z,31.17
2023-05-19T15:42:37.328Z,31.16
2023-05-19T15:43:43.229Z,31.18
2023-05-19T15:44:47.766Z,31.17
2023-05-19T15:45:56.028Z,31.18
2023-05-19T15:47:00.560Z,31.16
2023-05-19T15:48:06.526Z,31.15
2023-05-19T15:49:12.627Z,31.13
2023-05-19T15:50:19.233Z,31.13
2023-05-19T15:51:25.245Z,31.12
2023-05-19T15:52:31.050Z,31.12
2023-05-19T15:53:37.411Z,31.13
2023-05-19T15:54:42.443Z,31.11
2023-05-19T15:55:48.302Z,31.12
2023-05-19T15:56:52.823Z,31.10
2023-05-19T15:58:00.470Z,31.10
2023-05-19T15:59:05.087Z,31.08
2023-05-19T16:00:12.167Z,31.05
2023-05-19T16:01:17.232Z,31.04
2023-05-19T16:02:23.179Z,31.03
2023-05-19T16:03:27.940Z,31.00
2023-05-19T16:04:34.394Z,31.01
2023-05-19T16:05:40.328Z,31.00
2023-05-19T16:06:45.689Z,30.98
2023-05-19T16:07:51.502Z,30.96
2023-05-19T16:08:57.376Z,30.97
2023-05-19T16:10:03.249Z,30.93
2023-05-19T16:11:07.868Z,30.93
2023-05-19T16:12:13.792Z,30.91
2023-05-19T16:13:19.880Z,30.89
2023-05-19T16:14:29.456Z,30.88
2023-05-19T16:15:34.221Z,30.86
2023-05-19T16:16:40.177Z,30.85
2023-05-19T16:17:44.899Z,30.84
2023-05-19T16:18:50.840Z,30.82
2023-05-19T16:19:55.500Z,30.82
2023-05-19T16:21:01.383Z,30.80
2023-05-19T16:22:07.232Z,30.81
2023-05-19T16:23:11.848Z,30.77
2023-05-19T16:24:17.622Z,30.77
2023-05-19T16:25:22.386Z,30.77
2023-05-19T16:26:29.885Z,30.76
2023-05-19T16:27:35.698Z,30.74
2023-05-19T16:28:43.248Z,30.72
2023-05-19T16:29:47.807Z,30.72
2023-05-19T16:30:53.790Z,30.70
2023-05-19T16:31:59.722Z,30.69
2023-05-19T16:33:04.305Z,30.67
2023-05-19T16:34:10.354Z,30.65
2023-05-19T16:35:15.024Z,30.64
2023-05-19T16:36:23.014Z,30.64
2023-05-19T16:37:27.516Z,30.63
2023-05-19T16:38:33.609Z,30.62
2023-05-19T16:39:38.308Z,30.59
2023-05-19T16:40:44.277Z,30.54
2023-05-19T16:41:50.141Z,30.52
2023-05-19T16:42:55.280Z,30.47
2023-05-19T16:44:03.231Z,30.46
2023-05-19T16:45:08.713Z,30.43
2023-05-19T16:46:14.722Z,30.43
2023-05-19T16:47:19.202Z,30.41
2023-05-19T16:48:25.058Z,30.41
2023-05-19T16:49:29.606Z,30.41
2023-05-19T16:50:35.846Z,30.41
2023-05-19T16:51:40.674Z,30.39
2023-05-19T16:52:46.514Z,30.39
2023-05-19T16:53:51.092Z,30.35
2023-05-19T16:54:56.996Z,30.33
2023-05-19T16:56:01.586Z,30.33
2023-05-19T16:57:07.771Z,30.33
2023-05-19T16:58:12.671Z,30.29
2023-05-19T16:59:20.236Z,30.28
2023-05-19T17:00:26.741Z,30.27
2023-05-19T17:01:31.361Z,30.27
2023-05-19T17:02:37.397Z,30.26
2023-05-19T17:03:42.053Z,30.23
2023-05-19T17:04:48.030Z,30.21
2023-05-19T17:05:53.422Z,30.19
2023-05-19T17:06:59.252Z,30.19
2023-05-19T17:08:03.833Z,30.18
2023-05-19T17:09:09.955Z,30.18
2023-05-19T17:10:15.834Z,30.15
2023-05-19T17:11:20.462Z,30.14
2023-05-19T17:12:26.394Z,30.14
2023-05-19T17:13:34.653Z,30.14
2023-05-19T17:14:43.289Z,30.12
2023-05-19T17:15:47.838Z,30.12
2023-05-19T17:16:54.492Z,30.10
2023-05-19T17:17:59.037Z,30.08
2023-05-19T17:19:04.935Z,30.06
2023-05-19T17:20:10.776Z,30.05
2023-05-19T17:21:16.581Z,30.03
2023-05-19T17:22:21.096Z,30.02
2023-05-19T17:23:27.020Z,30.03
2023-05-19T17:24:34.219Z,30.03
2023-05-19T17:25:38.862Z,30.01
2023-05-19T17:26:44.639Z,30.00
2023-05-19T17:27:49.176Z,30.00
2023-05-19T17:28:55.070Z,29.99
2023-05-19T17:30:01.360Z,29.99
2023-05-19T17:31:13.747Z,29.98
2023-05-19T17:32:19.619Z,29.98
2023-05-19T17:33:24.414Z,29.96
2023-05-19T17:34:31.088Z,29.96
2023-05-19T17:35:35.716Z,29.94
2023-05-19T17:36:41.497Z,29.94
2023-05-19T17:37:46.051Z,29.93
2023-05-19T17:38:51.918Z,29.91
2023-05-19T17:39:57.842Z,29.90
2023-05-19T17:41:02.725Z,29.89
2023-05-19T17:42:08.969Z,29.88
2023-05-19T17:43:13.419Z,29.90
2023-05-19T17:44:19.334Z,29.89
2023-05-19T17:45:25.606Z,29.89
2023-05-19T17:46:37.376Z,29.89
2023-05-19T17:47:41.967Z,29.86
2023-05-19T17:48:47.796Z,29.84
2023-05-19T17:49:54.052Z,29.82
2023-05-19T17:51:00.053Z,29.81
2023-05-19T17:52:05.096Z,29.81
2023-05-19T17:53:11.380Z,29.79
2023-05-19T17:54:16.540Z,29.80
2023-05-19T17:55:23.472Z,29.78
2023-05-19T17:56:30.493Z,29.77
2023-05-19T17:57:35.636Z,29.76
2023-05-19T17:58:42.466Z,29.75
2023-05-19T17:59:47.489Z,29.74
2023-05-19T18:00:55.787Z,29.73
2023-05-19T18:02:02.213Z,29.71
2023-05-19T18:03:07.770Z,29.70
2023-05-19T18:04:16.080Z,29.70
2023-05-19T18:05:21.518Z,29.67
2023-05-19T18:06:27.692Z,29.67
2023-05-19T18:07:35.799Z,29.66
2023-05-19T18:08:43.559Z,29.65
2023-05-19T18:09:48.495Z,29.65
2023-05-19T18:10:54.790Z,29.63
2023-05-19T18:12:03.041Z,29.61
2023-05-19T18:13:09.465Z,29.60
2023-05-19T18:14:15.344Z,29.60
2023-05-19T18:15:19.990Z,29.60
2023-05-19T18:16:28.363Z,29.58
2023-05-19T18:17:32.910Z,29.58
2023-05-19T18:18:41.027Z,29.55
2023-05-19T18:19:45.617Z,29.54
2023-05-19T18:20:53.921Z,29.52
2023-05-19T18:21:58.448Z,29.50
2023-05-19T18:23:04.340Z,29.50
2023-05-19T18:24:10.511Z,29.49
2023-05-19T18:25:16.376Z,29.48
2023-05-19T18:26:22.382Z,29.46
2023-05-19T18:27:30.255Z,29.47
2023-05-19T18:28:36.294Z,29.45
2023-05-19T18:29:41.014Z,29.44
2023-05-19T18:30:46.909Z,29.43
2023-05-19T18:31:54.473Z,29.42
2023-05-19T18:33:02.871Z,29.39
2023-05-19T18:34:08.761Z,29.38
2023-05-19T18:35:14.775Z,29.38
2023-05-19T18:36:20.641Z,29.35
2023-05-19T18:37:25.208Z,29.34
2023-05-19T18:38:31.090Z,29.33
2023-05-19T18:39:35.683Z,29.32
2023-05-19T18:40:41.907Z,29.31
2023-05-19T18:41:46.791Z,29.29
2023-05-19T18:42:53.058Z,29.30
2023-05-19T18:43:57.589Z,29.29
2023-05-19T18:45:03.419Z,29.30
2023-05-19T18:46:08.111Z,29.28
2023-05-19T18:47:15.597Z,29.25
2023-05-19T18:48:20.290Z,29.27
2023-05-19T18:49:27.086Z,29.25
2023-05-19T18:50:33.030Z,29.24
2023-05-19T18:51:37.670Z,29.25
2023-05-19T18:52:43.573Z,29.25
2023-05-19T18:53:49.644Z,29.22
2023-05-19T18:54:55.601Z,29.22
2023-05-19T18:56:00.234Z,29.21
2023-05-19T18:57:06.175Z,29.21
2023-05-19T18:58:11.591Z,29.20
2023-05-19T18:59:17.526Z,29.20
2023-05-19T19:00:22.346Z,29.17
2023-05-19T19:01:28.276Z,29.19
2023-05-19T19:02:35.912Z,29.16
2023-05-19T19:03:40.410Z,29.15
2023-05-19T19:04:46.233Z,29.14
2023-05-19T19:05:57.717Z,29.14
2023-05-19T19:07:03.745Z,29.14
2023-05-19T19:08:09.734Z,29.13
2023-05-19T19:09:14.592Z,29.14
2023-05-19T19:10:20.600Z,29.14
2023-05-19T19:11:27.318Z,29.13
2023-05-19T19:12:31.920Z,29.13
2023-05-19T19:13:38.419Z,29.12
2023-05-19T19:14:44.424Z,29.12
2023-05-19T19:15:49.178Z,29.12
2023-05-19T19:16:55.135Z,29.12
2023-05-19T19:18:03.247Z,29.11
2023-05-19T19:19:08.259Z,29.09
2023-05-19T19:20:15.060Z,29.08
2023-05-19T19:21:26.581Z,29.09
2023-05-19T19:22:31.220Z,29.09
2023-05-19T19:23:37.260Z,29.10
2023-05-19T19:24:43.962Z,29.06
2023-05-19T19:25:50.578Z,29.07
2023-05-19T19:26:55.318Z,29.06
2023-05-19T19:28:01.352Z,29.04
2023-05-19T19:29:06.011Z,29.04
2023-05-19T19:30:12.979Z,29.05
2023-05-19T19:31:17.679Z,29.04
2023-05-19T19:32:23.978Z,29.05
2023-05-19T19:33:31.650Z,29.02
2023-05-19T19:34:36.305Z,29.02
2023-05-19T19:35:42.295Z,29.03
2023-05-19T19:36:50.379Z,29.03
2023-05-19T19:37:56.335Z,29.00
2023-05-19T19:39:02.396Z,28.99
2023-05-19T19:40:09.435Z,28.97
2023-05-19T19:41:15.601Z,28.95
2023-05-19T19:42:20.244Z,28.95
2023-05-19T19:43:26.244Z,28.95
2023-05-19T19:44:32.228Z,28.96
2023-05-19T19:45:40.041Z,28.95
2023-05-19T19:46:45.994Z,28.93
2023-05-19T19:47:52.684Z,28.92
2023-05-19T19:49:05.316Z,28.91
2023-05-19T19:50:11.713Z,28.91
2023-05-19T19:51:17.679Z,28.90
2023-05-19T19:52:22.190Z,28.90
2023-05-19T19:53:28.143Z,28.91
2023-05-19T19:54:34.040Z,28.89
2023-05-19T19:55:39.927Z,28.87
2023-05-19T19:56:44.427Z,28.86
2023-05-19T19:57:52.116Z,28.83
2023-05-19T19:58:59.378Z,28.81
2023-05-19T20:00:08.854Z,28.79
2023-05-19T20:01:14.928Z,28.79
2023-05-19T20:02:20.864Z,28.77
2023-05-19T20:03:27.100Z,28.75
2023-05-19T20:04:34.848Z,28.71
2023-05-19T20:05:40.454Z,28.70
2023-05-19T20:06:46.297Z,28.70
2023-05-19T20:07:52.335Z,28.70
2023-05-19T20:08:58.198Z,28.69
2023-05-19T20:10:02.677Z,28.68
2023-05-19T20:11:08.549Z,28.67
2023-05-19T20:12:13.074Z,28.65
2023-05-19T20:13:19.084Z,28.64
2023-05-19T20:14:24.979Z,28.64
2023-05-19T20:15:29.580Z,28.63
2023-05-19T20:16:35.462Z,28.62
2023-05-19T20:17:40.074Z,28.59
2023-05-19T20:18:45.991Z,28.58
2023-05-19T20:19:53.468Z,28.59
2023-05-19T20:20:59.504Z,28.55
2023-05-19T20:22:04.036Z,28.54
2023-05-19T20:23:10.281Z,28.52
2023-05-19T20:24:16.180Z,28.51
2023-05-19T20:25:20.684Z,28.50
2023-05-19T20:26:26.508Z,28.52
2023-05-19T20:27:31.038Z,28.51
2023-05-19T20:28:37.021Z,28.50
2023-05-19T20:29:43.486Z,28.50
2023-05-19T20:30:49.378Z,28.51
2023-05-19T20:31:55.406Z,28.52
2023-05-19T20:33:01.980Z,28.54
2023-05-19T20:34:07.877Z,28.55
2023-05-19T20:35:14.387Z,28.55
2023-05-19T20:36:20.152Z,28.58
2023-05-19T20:37:25.990Z,28.56
2023-05-19T20:38:30.475Z,28.57
2023-05-19T20:39:36.315Z,28.55
2023-05-19T20:40:40.900Z,28.54
2023-05-19T20:41:46.811Z,28.52
2023-05-19T20:42:52.854Z,28.54
2023-05-19T20:43:58.225Z,28.52
2023-05-19T20:45:04.409Z,28.53
2023-05-19T20:46:10.252Z,28.50
2023-05-19T20:47:14.843Z,28.51
2023-05-19T20:48:20.631Z,28.50
2023-05-19T20:49:25.230Z,28.49
2023-05-19T20:50:33.080Z,28.50
2023-05-19T20:51:37.871Z,28.50
2023-05-19T20:52:43.902Z,28.50
2023-05-19T20:53:48.442Z,28.49
2023-05-19T20:54:54.304Z,28.50
2023-05-19T20:56:00.192Z,28.50
2023-05-19T20:57:07.500Z,28.49
2023-05-19T20:58:14.128Z,28.48
2023-05-19T20:59:18.628Z,28.47
2023-05-19T21:00:24.578Z,28.48
2023-05-19T21:01:30.833Z,28.46
2023-05-19T21:02:36.701Z,28.44
2023-05-19T21:03:41.236Z,28.44
2023-05-19T21:04:47.586Z,28.43
2023-05-19T21:05:53.873Z,28.40
2023-05-19T21:06:59.876Z,28.39
2023-05-19T21:08:04.627Z,28.38
2023-05-19T21:09:11.455Z,28.34
2023-05-19T21:10:15.939Z,28.33
2023-05-19T21:11:22.072Z,28.31
2023-05-19T21:12:29.915Z,28.30
2023-05-19T21:13:34.871Z,28.26
2023-05-19T21:14:40.853Z,28.25
2023-05-19T21:15:46.710Z,28.23
2023-05-19T21:16:54.811Z,28.21
2023-05-19T21:17:59.376Z,28.18
2023-05-19T21:19:05.288Z,28.17
2023-05-19T21:20:11.066Z,28.16
2023-05-19T21:21:18.641Z,28.15
2023-05-19T21:22:23.162Z,28.13
2023-05-19T21:23:29.084Z,28.13
2023-05-19T21:24:33.645Z,28.11
2023-05-19T21:25:39.498Z,28.09
2023-05-19T21:26:44.614Z,28.08
2023-05-19T21:27:53.500Z,28.08
2023-05-19T21:28:59.366Z,28.07
2023-05-19T21:30:05.156Z,28.04
2023-05-19T21:31:09.805Z,28.05
2023-05-19T21:32:15.709Z,28.05
2023-05-19T21:33:20.259Z,28.02
2023-05-19T21:34:26.479Z,28.02
2023-05-19T21:35:31.067Z,28.01
2023-05-19T21:36:39.016Z,27.99
2023-05-19T21:37:43.570Z,27.99
2023-05-19T21:38:49.582Z,27.97
2023-05-19T21:39:55.430Z,27.98
2023-05-19T21:41:00.006Z,27.98
2023-05-19T21:42:06.274Z,28.00
2023-05-19T21:43:11.993Z,28.00
2023-05-19T21:44:17.847Z,27.98
2023-05-19T21:45:22.372Z,27.96
2023-05-19T21:46:29.974Z,27.94
2023-05-19T21:47:34.668Z,27.92
2023-05-19T21:48:40.508Z,27.90
2023-05-19T21:49:46.501Z,27.90
2023-05-19T21:50:55.723Z,27.89
2023-05-19T21:52:03.346Z,27.88
2023-05-19T21:53:07.927Z,27.87
2023-05-19T21:54:13.985Z,27.89
2023-05-19T21:55:18.769Z,27.90
2023-05-19T21:56:24.558Z,27.90
2023-05-19T21:57:30.388Z,27.92
2023-05-19T21:58:35.324Z,27.91
2023-05-19T21:59:41.230Z,27.90
2023-05-19T22:00:51.646Z,27.88
2023-05-19T22:01:57.590Z,27.88
2023-05-19T22:03:02.280Z,27.87
2023-05-19T22:04:08.465Z,27.88
2023-05-19T22:05:13.289Z,27.89
2023-05-19T22:06:19.096Z,27.90
2023-05-19T22:07:27.851Z,27.91
2023-05-19T22:08:33.688Z,27.92
2023-05-19T22:09:38.932Z,27.92
2023-05-19T22:10:44.798Z,27.92
2023-05-19T22:11:50.660Z,27.90
2023-05-19T22:12:55.252Z,27.91
2023-05-19T22:14:01.086Z,27.92
2023-05-19T22:15:07.554Z,27.92
2023-05-19T22:16:13.457Z,27.93
2023-05-19T22:17:18.012Z,27.94
2023-05-19T22:18:23.959Z,27.92
2023-05-19T22:19:28.690Z,27.92
2023-05-19T22:20:34.788Z,27.91
2023-05-19T22:21:39.537Z,27.91
2023-05-19T22:22:47.087Z,27.89
2023-05-19T22:23:51.723Z,27.89
2023-05-19T22:24:57.631Z,27.89
2023-05-19T22:26:02.231Z,27.89
2023-05-19T22:27:11.683Z,27.91
2023-05-19T22:28:16.270Z,27.93
2023-05-19T22:29:22.146Z,27.92
2023-05-19T22:30:26.867Z,27.93
2023-05-19T22:31:32.904Z,27.93
2023-05-19T22:32:37.609Z,27.96
2023-05-19T22:33:43.462Z,27.95
2023-05-19T22:34:48.054Z,27.94
2023-05-19T22:35:53.885Z,27.95
2023-05-19T22:36:58.498Z,27.96
2023-05-19T22:38:06.480Z,27.96
2023-05-19T22:39:13.359Z,27.94
2023-05-19T22:40:19.237Z,27.94
2023-05-19T22:41:24.714Z,27.92
2023-05-19T22:42:30.547Z,27.93
2023-05-19T22:43:35.190Z,27.92
2023-05-19T22:44:41.053Z,27.93
2023-05-19T22:45:45.706Z,27.92
2023-05-19T22:46:51.611Z,27.93
2023-05-19T22:47:56.570Z,27.92
2023-05-19T22:49:02.470Z,27.90
2023-05-19T22:50:10.799Z,27.89
2023-05-19T22:51:16.643Z,27.90
2023-05-19T22:52:21.158Z,27.90
2023-05-19T22:53:28.727Z,27.88
2023-05-19T22:54:33.337Z,27.87
2023-05-19T22:55:39.203Z,27.84
2023-05-19T22:56:46.503Z,27.85
2023-05-19T22:57:52.854Z,27.84
2023-05-19T22:58:57.861Z,27.83
2023-05-19T23:00:03.615Z,27.81
2023-05-19T23:01:08.256Z,27.82
2023-05-19T23:02:14.151Z,27.80
2023-05-19T23:03:19.281Z,27.76
2023-05-19T23:04:25.184Z,27.75
2023-05-19T23:05:29.824Z,27.74
2023-05-19T23:06:35.743Z,27.74
2023-05-19T23:07:40.280Z,27.74
2023-05-19T23:08:49.171Z,27.75
2023-05-19T23:09:53.777Z,27.75
2023-05-19T23:11:03.841Z,27.76
2023-05-19T23:12:08.846Z,27.76
2023-05-19T23:13:14.691Z,27.76
2023-05-19T23:14:19.661Z,27.78
2023-05-19T23:15:25.581Z,27.77
2023-05-19T23:16:30.180Z,27.77
2023-05-19T23:17:35.972Z,27.77
2023-05-19T23:18:40.485Z,27.76
2023-05-19T23:19:46.386Z,27.76
2023-05-19T23:20:50.948Z,27.77
2023-05-19T23:21:56.820Z,27.75
2023-05-19T23:23:01.487Z,27.74
2023-05-19T23:24:09.575Z,27.74
2023-05-19T23:25:14.145Z,27.75
2023-05-19T23:26:20.126Z,27.76
2023-05-19T23:27:24.664Z,27.77
2023-05-19T23:28:30.436Z,27.76
2023-05-19T23:29:35.027Z,27.75
2023-05-19T23:30:41.215Z,27.75
2023-05-19T23:31:46.093Z,27.76
2023-05-19T23:32:52.063Z,27.77
2023-05-19T23:33:56.907Z,27.76
2023-05-19T23:35:14.572Z,27.78
2023-05-19T23:36:19.260Z,27.79
2023-05-19T23:37:25.066Z,27.77
2023-05-19T23:38:29.669Z,27.77
2023-05-19T23:39:39.115Z,27.76
2023-05-19T23:40:43.786Z,27.78
2023-05-19T23:41:49.614Z,27.77
2023-05-19T23:42:54.208Z,27.77
2023-05-19T23:44:00.161Z,27.77
2023-05-19T23:45:04.860Z,27.79
2023-05-19T23:46:10.848Z,27.79
2023-05-19T23:47:15.450Z,27.81
2023-05-19T23:48:21.268Z,27.83
2023-05-19T23:49:25.808Z,27.84
2023-05-19T23:50:31.738Z,27.85
2023-05-19T23:51:36.282Z,27.85
2023-05-19T23:52:42.128Z,27.87
2023-05-19T23:53:46.992Z,27.88
2023-05-19T23:54:54.567Z,27.89
2023-05-19T23:55:59.057Z,27.88
2023-05-19T23:57:05.420Z,27.87
2023-05-19T23:58:10.276Z,27.89
2023-05-19T23:59:16.570Z,27.90
